createdAt,value
2019-05-21T00:00:25.417Z,44.75
2019-05-21T00:02:53.066Z,40.12
2019-05-21T00:05:20.606Z,43.55
2019-05-21T00:07:47.834Z,43.68
2019-05-21T00:10:15.054Z,39.30
2019-05-21T00:12:42.274Z,42.33
2019-05-21T00:15:09.983Z,38.50
2019-05-21T00:17:37.646Z,36.45
2019-05-21T00:20:05.322Z,33.67
2019-05-21T00:22:33.121Z,32.48
2019-05-21T00:25:01.402Z,28.90
2019-05-21T00:27:29.342Z,26.25
2019-05-21T00:30:33.948Z,25.20
2019-05-21T00:33:38.162Z,21.05
2019-05-21T00:36:44.125Z,17.48
2019-05-21T00:39:48.495Z,18.65
2019-05-21T00:42:25.875Z,19.17
2019-05-21T00:44:53.079Z,20.85
2019-05-21T00:47:20.667Z,19.70
2019-05-21T00:49:48.480Z,21.60
2019-05-21T00:52:15.705Z,18.60
2019-05-21T00:54:43.609Z,17.57
2019-05-21T00:57:11.825Z,18.10
2019-05-21T00:59:40.494Z,17.75
2019-05-21T01:02:07.987Z,22.07
2019-05-21T01:04:35.498Z,17.98
2019-05-21T01:07:03.382Z,17.95
2019-05-21T01:09:30.678Z,18.35
2019-05-21T01:11:57.875Z,22.27
2019-05-21T01:14:25.447Z,23.30
2019-05-21T01:16:53.929Z,19.35
2019-05-21T01:19:21.819Z,17.80
2019-05-21T01:21:49.772Z,19.20
2019-05-21T01:24:17.298Z,17.00
2019-05-21T01:26:44.883Z,21.12
2019-05-21T01:29:13.066Z,19.45
2019-05-21T01:31:41.123Z,19.48
2019-05-21T01:34:11.294Z,21.95
2019-05-21T01:36:37.888Z,20.35
2019-05-21T01:39:05.543Z,20.57
2019-05-21T01:41:33.142Z,24.90
2019-05-21T01:44:00.701Z,24.95
2019-05-21T01:46:28.591Z,29.70
2019-05-21T01:48:55.768Z,27.27
2019-05-21T01:51:23.415Z,26.45
2019-05-21T01:53:51.497Z,26.30
2019-05-21T01:56:19.039Z,27.22
2019-05-21T01:58:47.673Z,25.32
2019-05-21T02:01:14.900Z,24.52
2019-05-21T02:03:43.393Z,25.97
2019-05-21T02:06:11.594Z,24.92
2019-05-21T02:08:39.457Z,25.20
2019-05-21T02:11:07.610Z,25.95
2019-05-21T02:13:35.175Z,23.12
2019-05-21T02:16:02.446Z,26.17
2019-05-21T02:18:29.901Z,26.93
2019-05-21T02:20:57.494Z,25.08
2019-05-21T02:23:24.692Z,30.00
2019-05-21T02:25:52.316Z,26.48
2019-05-21T02:28:20.186Z,33.98
2019-05-21T02:30:48.543Z,31.30
2019-05-21T02:33:15.999Z,31.80
2019-05-21T02:35:53.495Z,30.40
2019-05-21T02:38:12.719Z,30.52
2019-05-21T02:40:39.964Z,28.95
2019-05-21T02:43:08.724Z,29.32
2019-05-21T02:45:36.540Z,27.40
2019-05-21T02:48:03.876Z,30.20
2019-05-21T02:50:31.853Z,30.92
2019-05-21T02:52:59.171Z,26.45
2019-05-21T02:55:26.702Z,31.73
2019-05-21T02:57:53.962Z,31.35
2019-05-21T03:00:40.878Z,33.85
2019-05-21T03:03:10.058Z,36.95
2019-05-21T03:05:37.752Z,36.40
2019-05-21T03:08:06.267Z,44.15
2019-05-21T03:10:33.728Z,37.05
2019-05-21T03:13:01.392Z,37.53
2019-05-21T03:15:28.587Z,36.23
2019-05-21T03:17:56.214Z,33.80
2019-05-21T03:20:23.736Z,34.83
2019-05-21T03:22:50.974Z,36.65
2019-05-21T03:25:18.906Z,40.67
2019-05-21T03:27:46.439Z,39.50
2019-05-21T03:30:14.931Z,39.83
2019-05-21T03:32:42.819Z,38.83
2019-05-21T03:35:10.524Z,34.38
2019-05-21T03:37:38.473Z,37.10
2019-05-21T03:40:07.059Z,34.15
2019-05-21T03:42:35.230Z,36.95
2019-05-21T03:45:07.327Z,34.73
2019-05-21T03:47:32.400Z,34.35
2019-05-21T03:50:00.195Z,29.35
2019-05-21T03:52:28.047Z,34.80
2019-05-21T03:54:55.763Z,30.55
2019-05-21T03:57:23.262Z,27.27
2019-05-21T03:59:50.453Z,26.55
2019-05-21T04:02:18.068Z,26.45
2019-05-21T04:04:45.414Z,28.45
2019-05-21T04:07:13.353Z,26.57
2019-05-21T04:09:40.675Z,28.23
2019-05-21T04:12:08.537Z,27.00
2019-05-21T04:14:43.299Z,21.48
2019-05-21T04:17:39.038Z,23.70
2019-05-21T04:20:06.877Z,33.95
2019-05-21T04:22:36.035Z,28.45
2019-05-21T04:25:05.170Z,27.35
2019-05-21T04:27:33.045Z,26.77
2019-05-21T04:30:00.359Z,27.48
2019-05-21T04:32:27.903Z,26.45
2019-05-21T04:34:55.432Z,22.82
2019-05-21T04:37:22.911Z,26.17
2019-05-21T04:39:51.159Z,26.70
2019-05-21T04:42:19.244Z,22.02
2019-05-21T04:44:46.749Z,19.77
2019-05-21T04:47:14.647Z,19.70
2019-05-21T04:49:42.440Z,19.25
2019-05-21T04:52:09.623Z,18.70
2019-05-21T04:54:37.445Z,20.75
2019-05-21T04:57:06.857Z,15.60
2019-05-21T04:59:34.436Z,17.00
2019-05-21T05:02:01.744Z,16.02
2019-05-21T05:04:29.061Z,18.85
2019-05-21T05:06:56.638Z,14.65
2019-05-21T05:09:24.383Z,14.73
2019-05-21T05:11:51.960Z,13.98
2019-05-21T05:14:19.534Z,11.88
2019-05-21T05:16:47.408Z,13.35
2019-05-21T05:19:15.279Z,13.70
2019-05-21T05:21:42.838Z,14.83
2019-05-21T05:24:10.366Z,12.93
2019-05-21T05:26:37.547Z,13.85
2019-05-21T05:29:05.138Z,15.38
2019-05-21T05:31:32.312Z,20.70
2019-05-21T05:33:59.838Z,22.25
2019-05-21T05:36:27.411Z,27.58
2019-05-21T05:38:55.008Z,30.90
2019-05-21T05:41:22.606Z,30.20
2019-05-21T05:43:50.938Z,37.55
2019-05-21T05:46:18.129Z,38.88
2019-05-21T05:48:54.971Z,36.70
2019-05-21T05:51:23.095Z,43.35
2019-05-21T05:53:56.892Z,42.23
2019-05-21T05:56:24.662Z,39.73
2019-05-21T05:58:52.291Z,40.52
2019-05-21T06:01:19.816Z,37.63
2019-05-21T06:03:47.010Z,43.68
2019-05-21T06:06:14.537Z,37.48
2019-05-21T06:08:41.970Z,39.80
2019-05-21T06:11:09.805Z,37.80
2019-05-21T06:13:37.194Z,39.13
2019-05-21T06:16:04.507Z,37.05
2019-05-21T06:18:35.563Z,32.83
2019-05-21T06:21:01.987Z,32.10
2019-05-21T06:23:29.519Z,32.28
2019-05-21T06:25:57.748Z,33.30
2019-05-21T06:28:25.327Z,31.10
2019-05-21T06:30:52.849Z,34.27
2019-05-21T06:33:20.060Z,32.20
2019-05-21T06:35:47.437Z,32.20
2019-05-21T06:38:18.059Z,28.90
2019-05-21T06:40:44.139Z,30.92
2019-05-21T06:43:11.262Z,27.60
2019-05-21T06:45:38.508Z,32.83
2019-05-21T06:48:05.773Z,31.45
2019-05-21T06:50:37.109Z,31.48
2019-05-21T06:53:03.484Z,32.45
2019-05-21T06:55:32.160Z,30.17
2019-05-21T06:57:59.753Z,26.17
2019-05-21T07:00:27.335Z,27.98
2019-05-21T07:02:54.881Z,29.32
2019-05-21T07:05:22.205Z,25.77
2019-05-21T07:07:49.438Z,24.70
2019-05-21T07:10:16.870Z,24.90
2019-05-21T07:12:44.580Z,24.77
2019-05-21T07:15:12.314Z,25.82
2019-05-21T07:17:39.929Z,24.85
2019-05-21T07:20:07.387Z,21.55
2019-05-21T07:22:34.674Z,21.40
2019-05-21T07:25:02.257Z,22.25
2019-05-21T07:27:29.778Z,21.30
2019-05-21T07:29:57.203Z,23.20
2019-05-21T07:32:24.848Z,22.45
2019-05-21T07:34:52.715Z,22.70
2019-05-21T07:37:19.892Z,22.05
2019-05-21T07:39:48.036Z,24.77
2019-05-21T07:42:15.521Z,22.32
2019-05-21T07:44:42.755Z,25.32
2019-05-21T07:47:10.648Z,27.70
2019-05-21T07:49:38.174Z,27.82
2019-05-21T07:52:05.375Z,24.45
2019-05-21T07:54:33.133Z,24.92
2019-05-21T07:57:00.648Z,27.17
2019-05-21T07:59:28.147Z,25.45
2019-05-21T08:01:56.032Z,29.85
2019-05-21T08:04:23.124Z,25.40
2019-05-21T08:06:51.370Z,28.07
2019-05-21T08:09:18.724Z,25.15
2019-05-21T08:11:47.118Z,33.13
2019-05-21T08:14:15.261Z,33.63
2019-05-21T08:16:42.658Z,26.73
2019-05-21T08:19:09.986Z,26.57
2019-05-21T08:21:37.648Z,25.80
2019-05-21T08:24:04.943Z,24.95
2019-05-21T08:26:32.499Z,25.77
2019-05-21T08:29:00.364Z,23.07
2019-05-21T08:31:28.252Z,23.95
2019-05-21T08:33:55.629Z,22.22
2019-05-21T08:36:23.579Z,23.50
2019-05-21T08:38:51.097Z,22.77
2019-05-21T08:41:18.615Z,25.90
2019-05-21T08:43:47.550Z,24.52
2019-05-21T08:46:15.653Z,24.02
2019-05-21T08:48:43.070Z,25.32
2019-05-21T08:51:10.761Z,25.77
2019-05-21T08:53:38.863Z,22.10
2019-05-21T08:56:07.072Z,22.37
2019-05-21T08:58:34.904Z,27.90
2019-05-21T09:01:02.456Z,25.97
2019-05-21T09:03:29.661Z,31.12
2019-05-21T09:05:57.412Z,29.30
2019-05-21T09:08:24.575Z,28.47
2019-05-21T09:10:52.098Z,27.07
2019-05-21T09:13:19.624Z,26.23
2019-05-21T09:15:47.729Z,27.20
2019-05-21T09:18:15.952Z,23.15
2019-05-21T09:20:43.503Z,25.02
2019-05-21T09:23:10.743Z,25.27
2019-05-21T09:25:38.403Z,22.17
2019-05-21T09:28:06.110Z,31.57
2019-05-21T09:30:33.306Z,26.52
2019-05-21T09:33:00.807Z,25.90
2019-05-21T09:35:28.008Z,22.22
2019-05-21T09:37:55.446Z,24.23
2019-05-21T09:40:24.762Z,24.12
2019-05-21T09:42:52.270Z,23.18
2019-05-21T09:45:20.187Z,26.23
2019-05-21T09:47:47.548Z,22.60
2019-05-21T09:50:15.190Z,19.67
2019-05-21T09:52:42.898Z,19.17
2019-05-21T09:55:10.962Z,17.60
2019-05-21T09:57:44.202Z,16.32
2019-05-21T10:00:33.642Z,14.90
2019-05-21T10:03:01.223Z,16.95
2019-05-21T10:05:28.396Z,14.38
2019-05-21T10:07:55.878Z,14.60
2019-05-21T10:10:23.358Z,14.05
2019-05-21T10:12:50.923Z,16.32
2019-05-21T10:15:18.608Z,13.95
2019-05-21T10:17:46.143Z,16.12
2019-05-21T10:20:14.024Z,16.57
2019-05-21T10:22:41.833Z,19.05
2019-05-21T10:25:09.451Z,20.62
2019-05-21T10:27:37.178Z,16.55
2019-05-21T10:30:06.166Z,20.85
2019-05-21T10:32:34.087Z,22.20
2019-05-21T10:35:01.640Z,24.92
2019-05-21T10:37:29.544Z,17.67
2019-05-21T10:39:57.022Z,25.55
2019-05-21T10:42:24.457Z,23.27
2019-05-21T10:44:51.676Z,21.05
2019-05-21T10:47:19.163Z,18.25
2019-05-21T10:49:47.039Z,19.98
2019-05-21T10:52:14.615Z,19.10
2019-05-21T10:54:41.810Z,19.25
2019-05-21T10:57:09.019Z,17.15
2019-05-21T10:59:36.210Z,20.90
2019-05-21T11:02:13.804Z,17.73
2019-05-21T11:05:00.704Z,20.57
2019-05-21T11:07:28.303Z,17.07
2019-05-21T11:09:55.782Z,18.23
2019-05-21T11:12:23.435Z,15.72
2019-05-21T11:14:51.556Z,15.70
2019-05-21T11:17:19.527Z,16.85
2019-05-21T11:19:47.079Z,16.77
2019-05-21T11:22:15.069Z,18.67
2019-05-21T11:24:42.939Z,15.25
2019-05-21T11:27:10.579Z,17.85
2019-05-21T11:29:37.727Z,16.00
2019-05-21T11:32:05.011Z,19.35
2019-05-21T11:34:32.257Z,17.15
2019-05-21T11:36:59.819Z,15.78
2019-05-21T11:39:27.373Z,18.35
2019-05-21T11:41:56.583Z,16.65
2019-05-21T11:44:24.144Z,19.75
2019-05-21T11:46:52.259Z,18.87
2019-05-21T11:49:19.487Z,25.30
2019-05-21T11:51:46.923Z,21.95
2019-05-21T11:54:15.057Z,27.35
2019-05-21T11:56:42.245Z,23.98
2019-05-21T11:59:10.352Z,24.85
2019-05-21T12:01:38.216Z,25.75
2019-05-21T12:04:06.020Z,23.85
2019-05-21T12:06:33.857Z,29.42
2019-05-21T12:09:01.671Z,25.30
2019-05-21T12:11:29.639Z,24.75
2019-05-21T12:13:57.688Z,23.90
2019-05-21T12:16:25.480Z,31.52
2019-05-21T12:18:53.095Z,28.12
2019-05-21T12:21:21.034Z,27.42
2019-05-21T12:23:49.182Z,25.30
2019-05-21T12:26:16.382Z,28.12
2019-05-21T12:28:43.695Z,25.55
2019-05-21T12:31:11.013Z,29.20
2019-05-21T12:33:38.695Z,27.75
2019-05-21T12:36:07.421Z,29.90
2019-05-21T12:38:35.200Z,30.75
2019-05-21T12:41:02.677Z,28.65
2019-05-21T12:43:29.996Z,33.30
2019-05-21T12:45:57.268Z,28.62
2019-05-21T12:48:24.784Z,26.10
2019-05-21T12:50:52.049Z,29.42
2019-05-21T12:53:20.072Z,27.90
2019-05-21T12:55:47.602Z,27.13
2019-05-21T12:58:15.066Z,24.18
2019-05-21T13:00:42.453Z,26.17
2019-05-21T13:03:09.987Z,25.55
2019-05-21T13:05:38.203Z,28.98
2019-05-21T13:08:05.721Z,31.02
2019-05-21T13:10:34.172Z,29.55
2019-05-21T13:13:01.579Z,23.85
2019-05-21T13:15:29.151Z,28.38
2019-05-21T13:17:56.740Z,24.57
2019-05-21T13:20:24.278Z,27.17
2019-05-21T13:22:52.200Z,26.82
2019-05-21T13:25:20.026Z,27.50
2019-05-21T13:27:47.894Z,26.55
2019-05-21T13:30:16.447Z,29.85
2019-05-21T13:32:44.027Z,27.22
2019-05-21T13:35:11.740Z,28.83
2019-05-21T13:37:39.715Z,33.20
2019-05-21T13:40:09.067Z,25.60
2019-05-21T13:42:36.672Z,28.42
2019-05-21T13:45:05.163Z,23.25
2019-05-21T13:47:32.349Z,35.28
2019-05-21T13:49:59.894Z,28.00
2019-05-21T13:52:27.439Z,33.08
2019-05-21T13:54:54.612Z,28.55
2019-05-21T13:57:22.385Z,27.05
2019-05-21T13:59:49.967Z,30.97
2019-05-21T14:02:19.762Z,31.70
2019-05-21T14:04:46.980Z,27.13
2019-05-21T14:07:14.481Z,33.83
2019-05-21T14:09:42.660Z,29.92
2019-05-21T14:12:09.992Z,36.60
2019-05-21T14:14:37.482Z,36.95
2019-05-21T14:17:05.047Z,30.52
2019-05-21T14:19:32.292Z,28.50
2019-05-21T14:21:59.720Z,31.85
2019-05-21T14:24:27.232Z,31.05
2019-05-21T14:26:54.747Z,39.23
2019-05-21T14:29:22.661Z,27.50
2019-05-21T14:31:49.956Z,29.30
2019-05-21T14:34:17.241Z,29.57
2019-05-21T14:36:44.834Z,26.90
2019-05-21T14:39:14.673Z,30.77
2019-05-21T14:41:41.896Z,24.65
2019-05-21T14:44:09.445Z,28.50
2019-05-21T14:46:36.635Z,26.87
2019-05-21T14:49:04.811Z,30.95
2019-05-21T14:51:32.675Z,28.65
2019-05-21T14:54:03.902Z,27.07
2019-05-21T14:56:31.120Z,29.00
2019-05-21T14:58:58.393Z,29.48
2019-05-21T15:01:25.730Z,25.77
2019-05-21T15:03:53.339Z,27.90
2019-05-21T15:06:21.027Z,25.62
2019-05-21T15:08:48.552Z,25.52
2019-05-21T15:11:16.154Z,25.90
2019-05-21T15:13:43.425Z,30.92
2019-05-21T15:16:10.993Z,27.17
2019-05-21T15:18:38.209Z,28.05
2019-05-21T15:21:17.072Z,26.30
2019-05-21T15:23:45.128Z,26.00
2019-05-21T15:26:13.310Z,29.45
2019-05-21T15:28:41.200Z,25.60
2019-05-21T15:31:08.754Z,27.17
2019-05-21T15:33:36.251Z,24.20
2019-05-21T15:36:03.787Z,21.68
2019-05-21T15:38:48.445Z,25.80
2019-05-21T15:41:10.181Z,24.07
2019-05-21T15:43:30.571Z,25.95
2019-05-21T15:45:57.738Z,20.92
2019-05-21T15:48:26.866Z,21.77
2019-05-21T15:50:54.755Z,22.67
2019-05-21T15:53:22.354Z,22.77
2019-05-21T15:55:49.447Z,24.05
2019-05-21T15:58:17.709Z,21.65
2019-05-21T16:00:45.175Z,24.57
2019-05-21T16:03:13.056Z,23.98
2019-05-21T16:05:40.557Z,26.48
2019-05-21T16:08:08.039Z,25.17
2019-05-21T16:10:35.596Z,24.80
2019-05-21T16:13:03.158Z,32.60
2019-05-21T16:15:30.363Z,30.10
2019-05-21T16:17:57.780Z,26.57
2019-05-21T16:20:25.082Z,25.97
2019-05-21T16:22:52.685Z,31.80
2019-05-21T16:25:20.195Z,27.80
2019-05-21T16:27:47.822Z,25.50
2019-05-21T16:30:15.058Z,26.80
2019-05-21T16:32:42.339Z,27.40
2019-05-21T16:35:10.761Z,25.88
2019-05-21T16:37:38.350Z,23.90
2019-05-21T16:40:06.514Z,26.95
2019-05-21T16:42:34.020Z,30.17
2019-05-21T16:45:02.107Z,29.75
2019-05-21T16:47:43.941Z,26.68
2019-05-21T16:49:58.691Z,26.62
2019-05-21T16:52:25.855Z,26.57
2019-05-21T16:54:53.427Z,29.90
2019-05-21T16:57:21.195Z,31.25
2019-05-21T16:59:48.767Z,29.20
2019-05-21T17:02:16.939Z,27.55
2019-05-21T17:04:44.870Z,36.48
2019-05-21T17:07:12.485Z,33.33
2019-05-21T17:09:39.778Z,31.50
2019-05-21T17:12:07.282Z,30.85
2019-05-21T17:14:35.054Z,25.48
2019-05-21T17:17:03.018Z,30.17
2019-05-21T17:19:30.847Z,30.10
2019-05-21T17:21:58.071Z,27.65
2019-05-21T17:24:25.619Z,33.08
2019-05-21T17:26:53.182Z,30.25
2019-05-21T17:29:21.032Z,35.90
2019-05-21T17:31:48.399Z,29.77
2019-05-21T17:34:16.203Z,32.73
2019-05-21T17:36:43.771Z,32.45
2019-05-21T17:39:11.226Z,32.17
2019-05-21T17:41:39.395Z,33.33
2019-05-21T17:44:07.071Z,32.20
2019-05-21T17:46:35.028Z,30.68
2019-05-21T17:49:02.657Z,30.30
2019-05-21T17:51:30.004Z,26.93
2019-05-21T17:53:57.746Z,27.73
2019-05-21T17:56:26.023Z,27.58
2019-05-21T17:58:53.965Z,27.48
2019-05-21T18:01:22.231Z,26.42
2019-05-21T18:03:49.542Z,28.77
2019-05-21T18:06:18.205Z,28.25
2019-05-21T18:08:46.695Z,29.05
2019-05-21T18:11:15.441Z,27.15
2019-05-21T18:13:44.064Z,27.07
2019-05-21T18:16:12.763Z,28.45
2019-05-21T18:18:41.281Z,23.15
2019-05-21T18:21:10.639Z,31.25
2019-05-21T18:23:38.328Z,28.60
2019-05-21T18:26:06.053Z,31.17
2019-05-21T18:28:33.875Z,25.27
2019-05-21T18:31:01.495Z,25.27
2019-05-21T18:33:28.994Z,23.60
2019-05-21T18:35:56.470Z,24.70
2019-05-21T18:38:24.439Z,24.60
2019-05-21T18:40:51.615Z,24.92
2019-05-21T18:43:19.139Z,25.90
2019-05-21T18:45:46.707Z,24.40
2019-05-21T18:48:14.620Z,22.80
2019-05-21T18:50:42.261Z,27.87
2019-05-21T18:53:10.198Z,22.73
2019-05-21T18:55:38.415Z,25.02
2019-05-21T18:58:06.001Z,24.85
2019-05-21T19:00:33.667Z,26.73
2019-05-21T19:03:01.616Z,23.35
2019-05-21T19:05:28.830Z,28.92
2019-05-21T19:07:56.395Z,24.18
2019-05-21T19:10:23.921Z,22.73
2019-05-21T19:12:51.187Z,22.73
2019-05-21T19:15:18.719Z,26.87
2019-05-21T19:17:46.174Z,24.77
2019-05-21T19:20:13.904Z,24.45
2019-05-21T19:22:41.394Z,20.20
2019-05-21T19:25:09.122Z,23.52
2019-05-21T19:27:37.278Z,22.52
2019-05-21T19:30:08.416Z,22.17
2019-05-21T19:32:36.060Z,22.27
2019-05-21T19:35:03.954Z,22.87
2019-05-21T19:37:31.943Z,21.07
2019-05-21T19:39:59.174Z,21.12
2019-05-21T19:42:26.388Z,21.20
2019-05-21T19:44:55.053Z,20.77
2019-05-21T19:47:22.553Z,25.77
2019-05-21T19:49:50.474Z,20.02
2019-05-21T19:52:18.351Z,22.10
2019-05-21T19:54:45.571Z,20.05
2019-05-21T19:57:13.233Z,19.67
2019-05-21T19:59:40.595Z,22.87
2019-05-21T20:02:08.799Z,22.17
2019-05-21T20:04:36.082Z,17.37
2019-05-21T20:07:07.102Z,18.20
2019-05-21T20:09:35.490Z,19.35
2019-05-21T20:12:03.712Z,20.15
2019-05-21T20:14:31.238Z,19.92
2019-05-21T20:16:59.192Z,19.92
2019-05-21T20:19:27.036Z,19.55
2019-05-21T20:21:55.222Z,18.80
2019-05-21T20:24:23.455Z,16.90
2019-05-21T20:26:51.071Z,20.57
2019-05-21T20:29:19.811Z,20.17
2019-05-21T20:31:47.348Z,18.15
2019-05-21T20:34:14.567Z,22.13
2019-05-21T20:36:42.879Z,18.65
2019-05-21T20:39:13.970Z,15.88
2019-05-21T20:41:42.878Z,15.98
2019-05-21T20:44:13.921Z,17.85
2019-05-21T20:46:42.326Z,15.93
2019-05-21T20:49:10.165Z,16.77
2019-05-21T20:51:38.221Z,18.30
2019-05-21T20:54:07.544Z,16.82
2019-05-21T20:56:36.304Z,16.85
2019-05-21T20:59:03.976Z,17.73
2019-05-21T21:01:31.889Z,15.88
2019-05-21T21:04:01.102Z,18.12
2019-05-21T21:06:35.494Z,15.50
2019-05-21T21:08:59.773Z,18.12
2019-05-21T21:11:28.745Z,15.48
2019-05-21T21:13:56.038Z,14.70
2019-05-21T21:16:23.324Z,15.85
2019-05-21T21:18:50.911Z,13.48
2019-05-21T21:21:18.812Z,14.98
2019-05-21T21:23:48.615Z,17.12
2019-05-21T21:26:17.211Z,13.18
2019-05-21T21:28:44.703Z,13.80
2019-05-21T21:31:12.950Z,15.72
2019-05-21T21:33:40.512Z,13.78
2019-05-21T21:36:08.201Z,19.73
2019-05-21T21:38:38.356Z,15.53
2019-05-21T21:41:06.759Z,15.78
2019-05-21T21:43:34.011Z,16.82
2019-05-21T21:46:01.392Z,15.23
2019-05-21T21:48:29.584Z,16.27
2019-05-21T21:50:58.143Z,16.77
2019-05-21T21:53:25.647Z,13.53
2019-05-21T21:55:53.236Z,15.35
2019-05-21T21:58:21.379Z,15.70
2019-05-21T22:01:25.229Z,16.07
2019-05-21T22:03:55.803Z,15.98
2019-05-21T22:06:24.698Z,15.48
2019-05-21T22:08:52.363Z,13.90
2019-05-21T22:11:21.153Z,14.70
2019-05-21T22:13:49.816Z,16.37
2019-05-21T22:16:17.727Z,16.75
2019-05-21T22:18:45.779Z,19.05
2019-05-21T22:21:14.039Z,16.17
2019-05-21T22:23:41.958Z,17.15
2019-05-21T22:26:09.883Z,16.90
2019-05-21T22:28:37.563Z,18.42
2019-05-21T22:31:05.962Z,19.80
2019-05-21T22:33:33.631Z,17.90
2019-05-21T22:36:00.954Z,17.92
2019-05-21T22:38:32.114Z,21.45
2019-05-21T22:40:58.390Z,20.23
2019-05-21T22:43:26.559Z,26.33
2019-05-21T22:45:54.510Z,26.42
2019-05-21T22:48:22.087Z,25.97
2019-05-21T22:50:49.983Z,27.62
2019-05-21T22:53:17.177Z,24.18
2019-05-21T22:55:45.402Z,25.08
2019-05-21T22:58:13.298Z,31.93
2019-05-21T23:00:40.845Z,28.67
2019-05-21T23:03:08.977Z,29.25
2019-05-21T23:05:36.534Z,30.32
2019-05-21T23:08:04.578Z,31.65
2019-05-21T23:10:32.131Z,32.40
2019-05-21T23:13:00.052Z,29.82
2019-05-21T23:15:28.168Z,34.50
2019-05-21T23:17:55.940Z,33.55
2019-05-21T23:20:27.284Z,35.08
2019-05-21T23:22:56.394Z,31.25
2019-05-21T23:25:24.550Z,35.10
2019-05-21T23:27:52.523Z,37.33
2019-05-21T23:30:21.370Z,37.30
2019-05-21T23:32:50.222Z,35.98
2019-05-21T23:35:18.589Z,36.90
2019-05-21T23:37:48.350Z,37.10
2019-05-21T23:40:16.402Z,39.38
2019-05-21T23:42:44.592Z,37.65
2019-05-21T23:45:14.797Z,39.23
2019-05-21T23:47:42.302Z,37.70
2019-05-21T23:50:11.293Z,39.88
2019-05-21T23:52:39.846Z,37.58
2019-05-21T23:55:10.584Z,37.78
2019-05-21T23:57:38.883Z,36.88
